Time;durP1;ratioP1;P1;durP2;ratioP2;P2;SDS_P1;SDS_P2;PMS_P1;PMS_P2;Temp;Humidity;BMP_temperature;BMP_pressure;BME280_temperature;BME280_humidity;BME280_pressure;Samples;Min_cycle;Max_cycle;Signal;HPM_P1;HPM_P2
2022/09/09 00:01:30;;;;;;;3.85;1.65;;;18.60;70.50;;;;;;5035048;28;20134;-78
2022/09/09 00:04:16;;;;;;;2.15;1.40;;;18.60;70.60;;;;;;5019627;28;20476;-77
2022/09/09 00:06:55;;;;;;;4.35;1.63;;;18.60;70.80;;;;;;5023325;28;20037;-77
2022/09/09 00:09:26;;;;;;;3.45;1.58;;;18.60;70.80;;;;;;5021433;28;20042;-78
2022/09/09 00:12:01;;;;;;;2.78;1.58;;;18.60;70.80;;;;;;5028474;28;20039;-78
2022/09/09 00:14:49;;;;;;;3.65;1.88;;;18.60;70.90;;;;;;5021750;28;20022;-78
2022/09/09 00:17:42;;;;;;;3.45;1.67;;;18.50;70.80;;;;;;5018239;28;20427;-77
2022/09/09 00:20:19;;;;;;;;;;;18.50;70.90;;;;;;5022385;28;20385;-77
2022/09/09 00:23:02;;;;;;;1.92;1.20;;;18.50;70.70;;;;;;5025288;28;19912;-77
2022/09/09 00:25:34;;;;;;;2.97;1.40;;;18.50;70.60;;;;;;5034679;28;20194;-78
2022/09/09 00:28:00;;;;;;;1.88;1.60;;;18.50;70.70;;;;;;5022478;28;20029;-77
2022/09/09 00:30:33;;;;;;;3.50;1.60;;;18.50;70.80;;;;;;5024886;28;20034;-76
2022/09/09 00:33:02;;;;;;;3.15;1.45;;;18.40;70.80;;;;;;5021946;28;20025;-77
2022/09/09 00:35:33;;;;;;;2.45;1.52;;;18.40;70.90;;;;;;5050785;28;20045;-77
2022/09/09 00:38:29;;;;;;;2.30;1.30;;;18.40;70.90;;;;;;5025244;28;20025;-76
2022/09/09 00:41:11;;;;;;;2.42;1.60;;;18.30;70.90;;;;;;5023246;28;20041;-76
2022/09/09 00:43:40;;;;;;;2.92;1.20;;;18.40;71.10;;;;;;5051789;28;20032;-76
2022/09/09 00:46:33;;;;;;;2.17;1.45;;;18.30;70.90;;;;;;5021965;28;20037;-75
2022/09/09 00:49:37;;;;;;;2.17;1.25;;;18.30;71.10;;;;;;5023412;28;20196;-76
2022/09/09 00:52:18;;;;;;;1.73;1.30;;;18.30;71.10;;;;;;5036270;28;20102;-76
2022/09/09 00:54:48;;;;;;;1.63;1.00;;;18.20;71.00;;;;;;5030622;28;20080;-78
2022/09/09 00:57:28;;;;;;;1.98;0.93;;;18.30;71.00;;;;;;5023087;28;20052;-77
2022/09/09 00:59:59;;;;;;;2.45;1.20;;;18.20;71.10;;;;;;5020490;28;20040;-76
2022/09/09 01:02:29;;;;;;;1.48;0.85;;;18.20;71.10;;;;;;5014189;28;20045;-77
2022/09/09 01:05:04;;;;;;;2.85;1.33;;;18.20;71.10;;;;;;5028691;28;20025;-76
2022/09/09 01:07:31;;;;;;;2.97;1.10;;;18.20;71.20;;;;;;5031301;28;20034;-76
2022/09/09 01:10:00;;;;;;;1.77;1.08;;;18.20;71.20;;;;;;5023387;28;20475;-77
2022/09/09 01:12:38;;;;;;;1.95;1.08;;;18.20;71.20;;;;;;5021376;28;20044;-74
2022/09/09 01:15:18;;;;;;;2.03;1.50;;;18.10;71.10;;;;;;5027705;28;20187;-75
2022/09/09 01:18:01;;;;;;;1.33;1.23;;;18.10;71.20;;;;;;5022492;28;20025;-76
2022/09/09 01:20:52;;;;;;;2.63;1.00;;;18.10;71.20;;;;;;5026648;28;20045;-79
2022/09/09 01:23:34;;;;;;;2.80;1.55;;;18.10;71.30;;;;;;5025920;28;20045;-76
2022/09/09 01:26:36;;;;;;;2.00;1.25;;;18.10;71.30;;;;;;5023541;28;20033;-77
2022/09/09 01:29:13;;;;;;;2.75;1.10;;;18.10;71.30;;;;;;5026320;28;20025;-78
2022/09/09 01:31:56;;;;;;;1.20;0.90;;;18.10;71.30;;;;;;5032555;28;20067;-77
2022/09/09 01:34:26;;;;;;;2.00;1.10;;;18.10;71.30;;;;;;5037404;28;20033;-77
2022/09/09 01:37:08;;;;;;;1.02;0.90;;;18.10;71.30;;;;;;5035315;28;20033;-78
2022/09/09 01:39:38;;;;;;;1.75;1.30;;;18.00;71.20;;;;;;5036203;28;20125;-75
2022/09/09 01:42:11;;;;;;;1.35;1.13;;;18.00;71.20;;;;;;5031218;28;20041;-75
2022/09/09 01:44:38;;;;;;;1.00;0.88;;;18.10;71.40;;;;;;5022299;28;20120;-76
2022/09/09 01:47:06;;;;;;;1.83;1.35;;;18.00;71.30;;;;;;5017925;28;20037;-76
2022/09/09 01:49:32;;;;;;;2.78;1.08;;;18.00;71.40;;;;;;5009858;28;20137;-75
2022/09/09 01:52:03;;;;;;;1.67;0.80;;;18.00;71.40;;;;;;5026493;28;20049;-76
2022/09/09 01:54:36;;;;;;;1.40;0.70;;;18.00;71.50;;;;;;5026803;28;20025;-75
2022/09/09 01:57:20;;;;;;;1.30;1.00;;;17.90;71.40;;;;;;5026524;28;20558;-77
2022/09/09 02:00:04;;;;;;;1.40;0.77;;;17.90;71.50;;;;;;5021496;28;20014;-76
2022/09/09 02:03:05;;;;;;;2.17;1.30;;;17.90;71.50;;;;;;5024552;28;20406;-76
2022/09/09 02:06:04;;;;;;;1.95;0.90;;;17.90;71.50;;;;;;5015125;28;20029;-76
2022/09/09 02:08:42;;;;;;;1.17;0.70;;;17.90;71.50;;;;;;5025493;28;20518;-77
2022/09/09 02:11:21;;;;;;;1.73;1.00;;;17.90;71.50;;;;;;5022345;28;20029;-76
2022/09/09 02:14:28;;;;;;;1.70;0.80;;;17.90;71.60;;;;;;5026444;28;20022;-76
2022/09/09 02:17:04;;;;;;;1.25;0.70;;;17.90;71.50;;;;;;5025824;28;20076;-76
2022/09/09 02:19:51;;;;;;;0.65;0.65;;;17.90;71.60;;;;;;5025757;28;20040;-76
2022/09/09 02:22:26;;;;;;;1.50;0.77;;;17.80;71.40;;;;;;5043319;28;20038;-77
2022/09/09 02:24:56;;;;;;;1.70;0.90;;;17.80;71.40;;;;;;5029046;28;20037;-78
2022/09/09 02:27:25;;;;;;;1.25;1.00;;;17.90;71.60;;;;;;5035731;28;20025;-78
2022/09/09 02:29:54;;;;;;;3.95;1.20;;;17.80;71.40;;;;;;5025913;28;20050;-78
2022/09/09 02:32:35;;;;;;;2.17;1.13;;;17.90;71.60;;;;;;5026961;28;20033;-78
2022/09/09 02:35:19;;;;;;;1.52;0.77;;;17.90;71.70;;;;;;5026105;28;20214;-78
2022/09/09 02:37:49;;;;;;;3.67;1.00;;;17.90;71.80;;;;;;5029675;28;20041;-78
2022/09/09 02:40:16;;;;;;;2.33;0.70;;;17.90;71.60;;;;;;5028552;28;20040;-78
2022/09/09 02:42:48;;;;;;;0.95;0.88;;;17.90;71.70;;;;;;5027674;28;20365;-78
2022/09/09 02:45:28;;;;;;;1.23;0.88;;;17.90;71.70;;;;;;5031109;28;20024;-77
2022/09/09 02:48:13;;;;;;;2.90;1.40;;;17.90;71.80;;;;;;5028804;28;20045;-78
2022/09/09 02:50:55;;;;;;;0.95;0.85;;;17.90;71.80;;;;;;5022576;28;20472;-78
2022/09/09 02:53:32;;;;;;;1.45;0.77;;;17.90;71.80;;;;;;5027469;28;20034;-78
2022/09/09 02:56:03;;;;;;;2.08;0.82;;;17.80;71.60;;;;;;5012335;28;20025;-77
2022/09/09 02:58:32;;;;;;;1.20;0.60;;;17.80;71.60;;;;;;5042514;28;20030;-76
2022/09/09 03:01:03;;;;;;;2.00;0.73;;;17.80;71.70;;;;;;5028585;28;20033;-77
2022/09/09 03:03:30;;;;;;;1.60;1.02;;;17.80;71.70;;;;;;5029463;28;20382;-77
2022/09/09 03:05:58;;;;;;;1.30;0.77;;;17.80;71.80;;;;;;5011534;28;20037;-77
2022/09/09 03:08:27;;;;;;;2.42;0.80;;;17.80;71.90;;;;;;5044991;28;20049;-76
2022/09/09 03:11:00;;;;;;;0.98;0.70;;;17.80;71.90;;;;;;5029258;28;20045;-77
2022/09/09 03:13:28;;;;;;;0.82;0.70;;;17.80;71.90;;;;;;5069975;28;20041;-76
2022/09/09 03:15:54;;;;;;;2.30;0.77;;;17.80;71.90;;;;;;5030814;28;20488;-77
2022/09/09 03:18:20;;;;;;;1.58;0.80;;;17.80;71.90;;;;;;5044005;28;20544;-77
2022/09/09 03:20:50;;;;;;;0.98;0.88;;;17.80;72.00;;;;;;5006038;28;20074;-76
2022/09/09 03:23:17;;;;;;;0.88;0.57;;;17.80;72.00;;;;;;5060514;28;20037;-77
2022/09/09 03:25:52;;;;;;;1.08;0.70;;;17.80;72.00;;;;;;5028537;28;20384;-78
2022/09/09 03:28:24;;;;;;;3.35;0.90;;;17.80;72.10;;;;;;5033719;28;20038;-79
2022/09/09 03:30:51;;;;;;;1.25;0.90;;;17.70;71.90;;;;;;5025930;28;20042;-77
2022/09/09 03:33:19;;;;;;;2.17;1.20;;;17.70;72.50;;;;;;5039287;28;20037;-77
2022/09/09 03:35:50;;;;;;;1.25;0.65;;;17.80;72.10;;;;;;5024747;28;20039;-76
2022/09/09 03:38:18;;;;;;;1.55;0.80;;;17.80;72.20;;;;;;5028823;28;20423;-76
2022/09/09 03:40:55;;;;;;;1.25;0.73;;;17.70;72.00;;;;;;5030198;28;20108;-76
2022/09/09 03:43:23;;;;;;;1.65;0.95;;;17.70;72.10;;;;;;5027341;28;20037;-77
2022/09/09 03:45:51;;;;;;;1.58;0.88;;;17.70;72.00;;;;;;5029115;28;20049;-76
2022/09/09 03:48:17;;;;;;;1.98;0.90;;;17.70;72.00;;;;;;5026975;28;20830;-76
2022/09/09 03:50:48;;;;;;;3.80;1.40;;;17.70;72.00;;;;;;5027731;28;20112;-78
2022/09/09 03:53:15;;;;;;;2.00;0.90;;;17.70;72.10;;;;;;5021518;28;20029;-78
2022/09/09 03:55:45;;;;;;;1.67;0.93;;;17.70;72.10;;;;;;5028467;28;20025;-78
2022/09/09 03:58:13;;;;;;;2.97;1.58;;;17.70;72.10;;;;;;5026261;28;20021;-77
2022/09/09 04:00:42;;;;;;;1.48;1.08;;;17.70;72.10;;;;;;5035552;28;20029;-76
2022/09/09 04:03:09;;;;;;;2.58;0.80;;;17.70;72.10;;;;;;5038416;28;20492;-76
2022/09/09 04:05:39;;;;;;;1.20;0.90;;;17.70;72.10;;;;;;5044623;28;20090;-77
2022/09/09 04:08:09;;;;;;;2.25;1.30;;;17.70;72.10;;;;;;5024520;28;20460;-77
2022/09/09 04:10:38;;;;;;;2.72;0.98;;;17.70;72.20;;;;;;5028028;28;20037;-76
2022/09/09 04:13:05;;;;;;;2.38;0.90;;;17.70;72.20;;;;;;5009593;28;20492;-76
2022/09/09 04:15:32;;;;;;;2.80;1.02;;;17.70;72.20;;;;;;5044124;28;20029;-76
2022/09/09 04:17:58;;;;;;;1.90;1.20;;;17.70;72.80;;;;;;5010809;28;20033;-76
2022/09/09 04:20:24;;;;;;;2.42;1.00;;;17.70;72.20;;;;;;5009271;28;20407;-77
2022/09/09 04:22:50;;;;;;;1.45;0.95;;;17.70;72.30;;;;;;5017244;28;20033;-76
2022/09/09 04:25:16;;;;;;;3.47;1.10;;;17.70;72.30;;;;;;5028011;28;20051;-76
2022/09/09 04:27:42;;;;;;;1.85;1.00;;;17.70;72.30;;;;;;5035700;28;20036;-76
2022/09/09 04:30:10;;;;;;;2.33;1.13;;;17.70;72.20;;;;;;5026293;28;20512;-76
2022/09/09 04:32:36;;;;;;;1.40;0.75;;;17.70;72.20;;;;;;5024722;28;20469;-77
2022/09/09 04:35:03;;;;;;;1.83;1.00;;;17.70;72.80;;;;;;5027345;28;20025;-76
2022/09/09 04:37:30;;;;;;;1.42;1.08;;;17.70;72.20;;;;;;5026790;28;20043;-77
2022/09/09 04:39:56;;;;;;;2.83;1.17;;;17.70;72.20;;;;;;5027211;28;20035;-76
2022/09/09 04:42:22;;;;;;;3.03;1.08;;;17.80;72.40;;;;;;5026891;28;20030;-76
2022/09/09 04:44:48;;;;;;;2.35;1.08;;;17.70;72.20;;;;;;5028306;28;20021;-76
2022/09/09 04:47:15;;;;;;;5.40;1.95;;;17.70;72.20;;;;;;5008623;28;20042;-77
2022/09/09 04:49:41;;;;;;;1.17;0.60;;;17.70;72.20;;;;;;5032990;28;20029;-76
2022/09/09 04:52:07;;;;;;;1.77;0.90;;;17.70;72.20;;;;;;5026886;28;20041;-76
2022/09/09 04:54:35;;;;;;;1.45;0.80;;;17.70;72.20;;;;;;5017255;28;20025;-76
2022/09/09 04:57:01;;;;;;;1.13;0.77;;;17.70;72.20;;;;;;5012227;28;20028;-77
2022/09/09 04:59:27;;;;;;;1.75;0.80;;;17.70;72.10;;;;;;5032686;28;20088;-77
2022/09/09 05:01:57;;;;;;;3.65;0.73;;;17.70;72.10;;;;;;5031207;28;21304;-77
2022/09/09 05:04:22;;;;;;;2.30;0.75;;;17.70;72.10;;;;;;5027479;28;20037;-77
2022/09/09 05:06:48;;;;;;;2.85;1.20;;;17.70;72.10;;;;;;5033411;28;20098;-76
2022/09/09 05:09:14;;;;;;;2.35;0.93;;;17.70;72.10;;;;;;5014332;28;20067;-79
2022/09/09 05:11:41;;;;;;;2.28;0.60;;;17.70;72.10;;;;;;5029052;28;20044;-77
2022/09/09 05:14:14;;;;;;;2.17;1.20;;;17.70;72.10;;;;;;5027743;28;20131;-76
2022/09/09 05:16:40;;;;;;;2.58;0.95;;;17.70;72.20;;;;;;5031652;28;20029;-77
2022/09/09 05:19:08;;;;;;;4.20;1.73;;;17.60;72.00;;;;;;5013149;28;20091;-77
2022/09/09 05:21:43;;;;;;;0.98;0.70;;;17.60;72.00;;;;;;5028831;28;20048;-76
2022/09/09 05:24:09;;;;;;;1.83;0.85;;;17.60;72.00;;;;;;5007317;28;20032;-76
2022/09/09 05:26:35;;;;;;;3.00;1.10;;;17.60;72.00;;;;;;5027927;28;20028;-76
2022/09/09 05:29:02;;;;;;;2.10;0.80;;;17.60;72.00;;;;;;5033190;28;20021;-75
2022/09/09 05:31:30;;;;;;;4.15;1.35;;;17.60;72.00;;;;;;5035018;28;20042;-76
2022/09/09 05:33:59;;;;;;;1.05;0.77;;;17.60;72.00;;;;;;5026623;28;20030;-77
2022/09/09 05:36:24;;;;;;;1.55;0.75;;;17.60;72.00;;;;;;5022800;28;20710;-76
2022/09/09 05:38:54;;;;;;;1.42;0.90;;;17.60;72.60;;;;;;5022654;28;20463;-78
2022/09/09 05:41:22;;;;;;;1.92;1.00;;;17.60;72.00;;;;;;5030011;28;20038;-79
2022/09/09 05:43:49;;;;;;;3.05;1.00;;;17.60;72.00;;;;;;5040593;28;20037;-78
2022/09/09 05:46:18;;;;;;;3.38;0.70;;;17.60;72.00;;;;;;5036568;28;20030;-82
2022/09/09 05:48:47;;;;;;;4.30;1.00;;;17.60;72.00;;;;;;5033896;28;20160;-77
2022/09/09 05:51:21;;;;;;;5.75;2.15;;;17.50;71.90;;;;;;5018639;28;20111;-77
2022/09/09 05:53:47;;;;;;;1.15;1.00;;;17.50;71.90;;;;;;5036993;28;20093;-79
2022/09/09 05:56:19;;;;;;;2.42;0.95;;;17.50;71.90;;;;;;5035830;28;20589;-79
2022/09/09 05:58:49;;;;;;;2.97;0.97;;;17.50;71.90;;;;;;5035002;28;20113;-77
2022/09/09 06:01:19;;;;;;;3.40;1.30;;;17.50;71.90;;;;;;5011882;28;20287;-77
2022/09/09 06:03:48;;;;;;;4.22;0.90;;;17.50;71.90;;;;;;5027332;28;20025;-78
2022/09/09 06:06:25;;;;;;;3.42;0.90;;;17.50;71.90;;;;;;5022194;28;20034;-77
2022/09/09 06:08:57;;;;;;;2.60;0.88;;;17.50;71.90;;;;;;5015550;28;20051;-77
2022/09/09 06:11:26;;;;;;;1.38;1.13;;;17.50;71.90;;;;;;5010065;28;20049;-81
2022/09/09 06:13:54;;;;;;;2.42;1.10;;;17.50;71.90;;;;;;5023864;28;20033;-78
2022/09/09 06:16:26;;;;;;;4.60;1.13;;;17.50;72.00;;;;;;5024442;28;20090;-79
2022/09/09 06:18:54;;;;;;;1.92;0.85;;;17.50;72.10;;;;;;5028146;28;20037;-78
2022/09/09 06:21:26;;;;;;;2.47;1.10;;;17.50;72.10;;;;;;5009758;28;20037;-77
2022/09/09 06:23:52;;;;;;;3.35;1.08;;;17.50;72.10;;;;;;5027083;28;20511;-77
2022/09/09 06:26:22;;;;;;;3.00;1.08;;;17.50;72.00;;;;;;5026270;28;20056;-75
2022/09/09 06:28:52;;;;;;;2.67;1.05;;;17.60;72.20;;;;;;5007810;28;20029;-77
2022/09/09 06:31:24;;;;;;;3.08;1.13;;;17.60;72.30;;;;;;5008275;28;20609;-78
2022/09/09 06:33:51;;;;;;;2.42;1.05;;;17.60;72.20;;;;;;5024800;28;20033;-78
2022/09/09 06:36:21;;;;;;;2.53;1.10;;;17.60;72.10;;;;;;5026398;28;20036;-77
2022/09/09 06:38:47;;;;;;;2.60;1.17;;;17.70;72.20;;;;;;5022317;28;20025;-78
2022/09/09 06:41:16;;;;;;;4.82;1.40;;;17.70;72.10;;;;;;5028925;28;20040;-78
2022/09/09 06:43:45;;;;;;;2.60;0.90;;;17.80;72.20;;;;;;5026451;28;20030;-79
2022/09/09 06:46:13;;;;;;;4.10;2.53;;;17.80;72.10;;;;;;5013050;28;20113;-79
2022/09/09 06:48:44;;;;;;;2.20;1.13;;;17.90;72.10;;;;;;5027510;28;20037;-79
2022/09/09 06:51:17;;;;;;;3.97;1.90;;;18.00;72.20;;;;;;5025458;28;20061;-79
2022/09/09 06:53:45;;;;;;;3.78;1.70;;;18.10;72.10;;;;;;5020017;28;20737;-78
2022/09/09 06:56:22;;;;;;;4.13;1.27;;;18.10;71.90;;;;;;5025352;28;20033;-78
2022/09/09 06:58:51;;;;;;;2.45;1.23;;;18.30;72.10;;;;;;5024983;28;20028;-78
2022/09/09 07:01:25;;;;;;;3.50;1.23;;;18.40;72.00;;;;;;5004481;28;20030;-78
2022/09/09 07:03:54;;;;;;;3.55;1.40;;;18.50;71.90;;;;;;5018528;28;20033;-78
2022/09/09 07:06:25;;;;;;;2.72;1.40;;;18.70;71.90;;;;;;5027298;28;20086;-74
2022/09/09 07:08:53;;;;;;;5.00;1.42;;;18.70;71.60;;;;;;5035780;28;20517;-76
2022/09/09 07:11:21;;;;;;;2.75;1.00;;;18.90;71.60;;;;;;5045565;28;20048;-75
2022/09/09 07:13:48;;;;;;;2.90;1.38;;;19.00;71.50;;;;;;5036921;28;20048;-76
2022/09/09 07:16:17;;;;;;;3.58;1.27;;;19.20;72.00;;;;;;5036147;28;20056;-76
2022/09/09 07:18:43;;;;;;;1.50;0.90;;;19.40;71.40;;;;;;5012567;28;20073;-76
2022/09/09 07:21:14;;;;;;;2.53;1.35;;;19.50;71.20;;;;;;5023166;28;20823;-76
2022/09/09 07:23:41;;;;;;;5.18;1.80;;;19.70;71.30;;;;;;5026049;28;20477;-76
2022/09/09 07:26:15;;;;;;;3.25;1.05;;;19.80;71.20;;;;;;5008903;28;20048;-76
2022/09/09 07:28:42;;;;;;;2.60;1.00;;;19.80;71.00;;;;;;5023147;28;20127;-77
2022/09/09 07:31:21;;;;;;;2.50;1.50;;;19.90;70.90;;;;;;5007012;28;20099;-77
2022/09/09 07:33:48;;;;;;;2.63;1.20;;;20.00;70.90;;;;;;5021673;28;20548;-76
2022/09/09 07:36:17;;;;;;;2.65;0.85;;;20.00;70.70;;;;;;5003184;28;20030;-76
2022/09/09 07:38:46;;;;;;;1.23;1.00;;;20.00;70.70;;;;;;5020989;28;20174;-76
2022/09/09 07:41:34;;;;;;;2.63;1.00;;;20.10;70.80;;;;;;5017696;28;20033;-77
2022/09/09 07:44:06;;;;;;;4.63;1.48;;;20.00;70.50;;;;;;5013748;28;20095;-76
2022/09/09 07:46:33;;;;;;;2.65;1.10;;;20.10;70.70;;;;;;5043300;28;20250;-78
2022/09/09 07:49:02;;;;;;;3.22;1.48;;;20.10;70.50;;;;;;4992468;28;20287;-78
2022/09/09 07:51:35;;;;;;;2.70;1.10;;;20.20;70.50;;;;;;5027907;28;20044;-78
2022/09/09 07:54:04;;;;;;;3.33;1.25;;;20.30;70.50;;;;;;5041273;28;20036;-77
2022/09/09 07:56:32;;;;;;;4.65;1.23;;;20.40;70.30;;;;;;5026542;28;20090;-77
2022/09/09 07:58:59;;;;;;;2.67;1.58;;;20.50;70.20;;;;;;5030422;28;20076;-78
2022/09/09 08:01:29;;;;;;;1.92;1.23;;;20.70;70.30;;;;;;5036289;28;20310;-78
2022/09/09 08:04:00;;;;;;;2.00;1.23;;;20.80;70.00;;;;;;5036567;28;20477;-78
2022/09/09 08:06:36;;;;;;;3.75;1.73;;;21.00;69.90;;;;;;5036418;28;20493;-78
2022/09/09 08:09:03;;;;;;;2.30;0.95;;;21.20;69.80;;;;;;5024234;28;20041;-78
2022/09/09 08:11:32;;;;;;;1.60;0.90;;;21.30;69.50;;;;;;5026255;28;20041;-78
2022/09/09 08:13:59;;;;;;;2.40;0.88;;;21.60;69.50;;;;;;5022359;28;20067;-77
2022/09/09 08:16:30;;;;;;;1.70;0.60;;;21.70;69.20;;;;;;5021524;28;20440;-79
2022/09/09 08:18:57;;;;;;;1.90;0.98;;;21.90;69.00;;;;;;5030766;28;20022;-79
2022/09/09 08:21:27;;;;;;;2.78;1.35;;;22.10;69.00;;;;;;5038579;28;20769;-78
2022/09/09 08:23:56;;;;;;;1.92;0.82;;;22.20;68.80;;;;;;5013167;28;20022;-79
2022/09/09 08:26:28;;;;;;;1.92;1.17;;;22.20;68.50;;;;;;5029226;28;20043;-77
2022/09/09 08:28:56;;;;;;;2.77;1.03;;;22.30;68.40;;;;;;5009602;28;20541;-77
2022/09/09 08:31:24;;;;;;;0.88;0.68;;;22.40;68.40;;;;;;5023641;28;20352;-78
2022/09/09 08:33:51;;;;;;;2.00;1.17;;;22.50;68.30;;;;;;5023600;28;20040;-76
2022/09/09 08:36:19;;;;;;;2.78;1.00;;;22.50;68.10;;;;;;5054167;28;20087;-76
2022/09/09 08:38:54;;;;;;;1.40;0.80;;;22.60;67.90;;;;;;5022278;28;20095;-75
2022/09/09 08:41:39;;;;;;;2.28;1.00;;;22.70;67.80;;;;;;5031612;28;20039;-75
2022/09/09 08:44:12;;;;;;;1.83;0.80;;;22.80;67.70;;;;;;5038031;28;20037;-77
2022/09/09 08:46:44;;;;;;;1.88;1.38;;;22.80;67.60;;;;;;5042315;28;20033;-78
2022/09/09 08:49:36;;;;;;;1.52;1.20;;;22.70;67.40;;;;;;5032876;28;20086;-78
2022/09/09 08:52:08;;;;;;;1.53;0.60;;;22.70;67.40;;;;;;5017294;28;20530;-78
2022/09/09 08:54:36;;;;;;;1.20;0.80;;;22.70;67.60;;;;;;5042248;28;20028;-79
2022/09/09 08:57:07;;;;;;;1.95;0.80;;;22.60;67.40;;;;;;5011324;28;20029;-76
2022/09/09 08:59:33;;;;;;;1.88;0.70;;;22.50;67.30;;;;;;5024218;28;20038;-75
2022/09/09 09:02:15;;;;;;;1.42;0.80;;;22.50;67.40;;;;;;5021401;28;20037;-74
2022/09/09 09:05:12;;;;;;;1.23;0.80;;;22.40;67.20;;;;;;5024841;28;20026;-75
2022/09/09 09:08:15;;;;;;;1.67;0.85;;;22.30;67.10;;;;;;5032135;28;20171;-74
2022/09/09 09:10:50;;;;;;;2.42;0.98;;;22.20;67.00;;;;;;5045228;28;20041;-75
2022/09/09 09:13:31;;;;;;;1.35;0.75;;;22.10;67.50;;;;;;5022046;28;20025;-75
2022/09/09 09:16:10;;;;;;;2.65;1.17;;;22.10;67.10;;;;;;5022272;28;20041;-75
2022/09/09 09:18:37;;;;;;;1.30;0.70;;;22.00;67.10;;;;;;5034099;28;20439;-75
2022/09/09 09:21:06;;;;;;;2.13;0.90;;;21.90;66.90;;;;;;5031644;28;20029;-74
2022/09/09 09:23:51;;;;;;;1.88;0.80;;;21.90;67.00;;;;;;5024120;28;20096;-79
2022/09/09 09:26:19;;;;;;;1.92;1.13;;;21.80;66.90;;;;;;5038082;28;20033;-78
2022/09/09 09:28:46;;;;;;;1.88;0.88;;;21.80;67.00;;;;;;5021574;28;20032;-78
2022/09/09 09:31:15;;;;;;;1.27;0.88;;;21.70;66.90;;;;;;5021498;28;20053;-76
2022/09/09 09:33:53;;;;;;;1.23;0.60;;;21.70;66.90;;;;;;5019945;28;20453;-75
2022/09/09 09:36:33;;;;;;;1.02;0.60;;;21.60;66.70;;;;;;5015818;28;20029;-75
2022/09/09 09:39:01;;;;;;;1.48;0.90;;;21.60;66.80;;;;;;5021688;28;20024;-74
2022/09/09 09:41:34;;;;;;;2.15;0.70;;;21.60;66.80;;;;;;5031349;28;20423;-76
2022/09/09 09:44:01;;;;;;;1.80;0.70;;;21.60;66.70;;;;;;5010593;28;20038;-77
2022/09/09 09:46:28;;;;;;;1.67;0.50;;;21.70;66.90;;;;;;5023951;28;20026;-77
2022/09/09 09:49:05;;;;;;;1.23;0.80;;;21.70;66.70;;;;;;5026743;28;20030;-76
2022/09/09 09:51:32;;;;;;;1.52;0.60;;;21.80;66.80;;;;;;5033911;28;20784;-75
2022/09/09 09:54:13;;;;;;;1.02;0.60;;;21.80;66.70;;;;;;5002853;28;20025;-76
2022/09/09 09:56:42;;;;;;;1.02;0.50;;;21.90;66.70;;;;;;5006377;28;20037;-77
2022/09/09 09:59:33;;;;;;;0.95;0.60;;;21.90;66.60;;;;;;5029981;28;20052;-76
2022/09/09 10:02:26;;;;;;;1.05;0.73;;;21.90;66.50;;;;;;5001036;28;20037;-76
2022/09/09 10:05:28;;;;;;;1.92;0.50;;;21.90;66.50;;;;;;5026718;28;20033;-77
2022/09/09 10:08:20;;;;;;;1.63;0.60;;;21.90;66.40;;;;;;5031756;28;20061;-75
2022/09/09 10:10:54;;;;;;;1.20;0.50;;;21.90;66.30;;;;;;5024493;28;20038;-77
2022/09/09 10:13:26;;;;;;;3.75;1.10;;;22.00;66.40;;;;;;5014484;28;20060;-78
2022/09/09 10:16:20;;;;;;;1.00;0.50;;;22.00;66.30;;;;;;5008112;28;20025;-80
2022/09/09 10:19:00;;;;;;;1.08;0.57;;;22.00;66.20;;;;;;5015279;28;20425;-78
2022/09/09 10:21:47;;;;;;;1.55;0.57;;;22.10;66.40;;;;;;5024130;28;20038;-76
2022/09/09 10:25:11;;;;;;;0.93;0.68;;;22.10;66.30;;;;;;5054555;28;20378;-78
2022/09/09 10:28:08;;;;;;;1.95;0.50;;;22.10;66.20;;;;;;5045074;28;20162;-78
2022/09/09 10:30:57;;;;;;;2.55;0.82;;;22.20;66.20;;;;;;5043021;28;20024;-77
2022/09/09 10:33:53;;;;;;;2.35;0.90;;;22.30;66.30;;;;;;5014275;28;20044;-76
2022/09/09 10:36:23;;;;;;;1.02;0.50;;;22.30;66.10;;;;;;5021981;28;20400;-78
2022/09/09 10:38:59;;;;;;;1.45;0.82;;;22.30;66.10;;;;;;5038911;28;20112;-79
2022/09/09 10:41:38;;;;;;;2.40;0.93;;;22.40;66.20;;;;;;5029076;28;20506;-77
2022/09/09 10:44:06;;;;;;;1.77;0.73;;;22.40;66.20;;;;;;5038184;28;20452;-77
2022/09/09 10:46:45;;;;;;;1.33;0.88;;;22.40;66.20;;;;;;5053448;28;20208;-76
2022/09/09 10:49:27;;;;;;;1.73;0.82;;;22.40;66.10;;;;;;5047998;28;20028;-77
2022/09/09 10:52:24;;;;;;;0.80;0.70;;;22.50;66.30;;;;;;5040583;28;20057;-76
2022/09/09 10:55:06;;;;;;;3.53;1.10;;;22.50;66.30;;;;;;5047733;28;20505;-79
2022/09/09 10:57:40;;;;;;;2.88;1.25;;;22.60;66.30;;;;;;5030383;28;20381;-79
2022/09/09 11:00:20;;;;;;;1.27;0.95;;;22.80;66.40;;;;;;5043308;28;20881;-79
2022/09/09 11:02:55;;;;;;;1.55;0.75;;;22.90;66.20;;;;;;5025283;28;20725;-78
2022/09/09 11:05:30;;;;;;;0.70;0.60;;;23.10;66.30;;;;;;5032935;28;20063;-78
2022/09/09 11:08:04;;;;;;;1.63;0.80;;;23.20;66.30;;;;;;5032893;28;20496;-79
2022/09/09 11:10:39;;;;;;;2.58;1.30;;;23.30;66.80;;;;;;5030609;28;20091;-79
2022/09/09 11:13:36;;;;;;;1.58;0.60;;;23.50;66.40;;;;;;5003443;28;20373;-78
2022/09/09 11:16:28;;;;;;;1.35;0.80;;;23.70;66.40;;;;;;5013300;28;20045;-78
2022/09/09 11:19:41;;;;;;;1.48;1.05;;;23.90;66.20;;;;;;5015228;28;20034;-77
2022/09/09 11:22:30;;;;;;;1.80;0.80;;;24.10;66.00;;;;;;5019571;28;20510;-77
2022/09/09 11:25:33;;;;;;;2.60;0.82;;;24.50;66.10;;;;;;5040213;28;20033;-79
2022/09/09 11:28:06;;;;;;;1.77;0.88;;;24.70;65.80;;;;;;5020920;28;20021;-79
2022/09/09 11:30:42;;;;;;;1.17;0.70;;;24.90;65.80;;;;;;5030210;28;20094;-77
2022/09/09 11:33:31;;;;;;;2.90;0.90;;;25.00;65.50;;;;;;5037222;28;20029;-79
2022/09/09 11:36:03;;;;;;;1.88;1.10;;;25.10;65.30;;;;;;5053648;28;20024;-78
2022/09/09 11:38:35;;;;;;;3.20;1.02;;;25.10;65.20;;;;;;5025343;28;20034;-77
2022/09/09 11:41:06;;;;;;;;;;;25.10;65.20;;;;;;5043309;28;20025;-78
2022/09/09 11:43:46;;;;;;;3.00;1.50;;;25.10;65.20;;;;;;5032324;28;19935;-78
2022/09/09 11:46:15;;;;;;;4.55;1.00;;;25.10;65.10;;;;;;5022117;28;20491;-78
2022/09/09 11:48:45;;;;;;;2.03;1.13;;;25.10;65.10;;;;;;5028782;28;20055;-76
2022/09/09 11:51:20;;;;;;;1.17;0.90;;;25.10;65.00;;;;;;5043564;28;20528;-77
2022/09/09 11:53:51;;;;;;;4.68;1.65;;;25.10;64.90;;;;;;5035485;28;20045;-77
2022/09/09 11:56:44;;;;;;;2.03;0.85;;;25.10;64.80;;;;;;5026098;28;20503;-76
2022/09/09 11:59:26;;;;;;;3.72;0.90;;;25.20;64.70;;;;;;5015558;28;20484;-77
2022/09/09 12:01:56;;;;;;;1.77;0.98;;;25.20;64.60;;;;;;5016624;28;20389;-76
2022/09/09 12:04:25;;;;;;;2.05;1.00;;;25.30;64.60;;;;;;5059198;28;20029;-76
2022/09/09 12:07:11;;;;;;;3.85;1.65;;;25.40;64.50;;;;;;5027550;28;20350;-75
2022/09/09 12:09:51;;;;;;;1.48;0.95;;;25.40;64.30;;;;;;5019253;28;20360;-77
2022/09/09 12:12:35;;;;;;;1.48;0.93;;;25.40;64.30;;;;;;5024770;28;20041;-76
2022/09/09 12:15:07;;;;;;;3.20;1.38;;;25.40;64.30;;;;;;5025659;28;20301;-76
2022/09/09 12:17:44;;;;;;;1.80;0.77;;;25.40;64.30;;;;;;5023468;28;20034;-76
2022/09/09 12:20:19;;;;;;;1.48;0.93;;;25.40;64.30;;;;;;5022549;28;20029;-76
2022/09/09 12:22:45;;;;;;;3.08;1.35;;;25.30;64.40;;;;;;5024262;28;20029;-76
2022/09/09 12:25:40;;;;;;;2.17;1.10;;;25.20;64.60;;;;;;5020855;28;20037;-77
2022/09/09 12:28:12;;;;;;;2.40;1.20;;;25.20;64.70;;;;;;5015718;28;20471;-77
2022/09/09 12:30:46;;;;;;;;;;;25.20;64.70;;;;;;5025015;28;20045;-77
2022/09/09 12:33:16;;;;;;;2.88;1.10;;;25.30;64.60;;;;;;5027073;28;19994;-77
2022/09/09 12:35:44;;;;;;;1.58;0.75;;;25.50;64.50;;;;;;5022172;28;20408;-77
2022/09/09 12:38:24;;;;;;;3.00;1.10;;;25.50;64.20;;;;;;5031569;28;20033;-76
2022/09/09 12:40:57;;;;;;;1.73;1.25;;;25.60;64.10;;;;;;5025945;28;20408;-77
2022/09/09 12:43:25;;;;;;;2.70;0.90;;;25.50;64.10;;;;;;5022964;28;20029;-78
2022/09/09 12:45:57;;;;;;;2.83;0.88;;;25.50;64.20;;;;;;5025409;28;20026;-79
2022/09/09 12:48:38;;;;;;;1.17;0.70;;;25.50;64.40;;;;;;5033330;28;20055;-77
2022/09/09 12:51:15;;;;;;;1.88;1.00;;;25.50;64.30;;;;;;5017209;28;20438;-77
2022/09/09 12:53:41;;;;;;;1.75;1.05;;;25.70;64.30;;;;;;5039285;28;20040;-77
2022/09/09 12:56:18;;;;;;;1.83;0.88;;;25.80;64.10;;;;;;5013354;28;20034;-77
2022/09/09 12:58:48;;;;;;;3.20;1.55;;;25.90;64.00;;;;;;5050325;28;20063;-80
2022/09/09 13:01:32;;;;;;;3.88;1.33;;;25.90;63.80;;;;;;5014769;28;20056;-78
2022/09/09 13:03:59;;;;;;;1.75;0.90;;;25.90;63.80;;;;;;5017365;28;20033;-79
2022/09/09 13:06:30;;;;;;;4.03;1.55;;;26.00;63.80;;;;;;5035637;28;20032;-78
2022/09/09 13:09:00;;;;;;;1.45;0.90;;;26.00;63.60;;;;;;5033975;28;20055;-78
2022/09/09 13:11:52;;;;;;;1.75;1.15;;;26.10;63.50;;;;;;5046375;28;20045;-78
2022/09/09 13:14:28;;;;;;;2.77;1.20;;;26.20;63.40;;;;;;5031401;28;20045;-78
2022/09/09 13:17:00;;;;;;;1.58;0.80;;;26.20;63.40;;;;;;5016626;28;20041;-77
2022/09/09 13:19:28;;;;;;;1.60;0.88;;;26.40;63.80;;;;;;5055673;28;20029;-78
2022/09/09 13:21:55;;;;;;;3.42;1.00;;;26.60;63.10;;;;;;5040866;28;20403;-79
2022/09/09 13:24:34;;;;;;;1.60;1.10;;;26.70;62.70;;;;;;5027735;28;20032;-80